logo
Rechercher aéroport 
image banner adimage banner adimage banner ad
image banner ad

16CA - Police Pistol Range

Situé à San Francisco, United States

ICAO - 16CA, IATA -

Données fournies par Airmate  

Information générale

Coordonnées: N37°43'12" W122°29'57"
Élévation : 24 feet MSL.
Variation magnétique : 16° East
Voir autres Aéroports à California

Données opérationnelles

Special qualification required
Heure actuelle UTC:
Heure actuelle locale:
Météo à : KSFO - San Francisco Intl ( 16 km )
METAR: KSFO 261556Z 30007KT 10SM FEW006 OVC009 15/13 A3001 RMK AO2 SLP161 T01500128
TAF: KSFO 261500Z 2615/2718 30007KT P6SM FEW006 OVC010 FM261800 30009KT P6SM FEW006 FEW010 FM262100 31015G20KT P6SM FEW007 FM270300 30012KT P6SM FEW007 FM270800 28008KT P6SM BKN011 FM271700 28006KT P6SM FEW006 SCT012
Voir NOTAMs / SUP AIP / TFR affectant cet aéroport [VIEW]
Fréquences de communication: [VIEW]

Pistes:

Coordonnées de l'aéroport

Adresse: San Francisco United States

Vue satellite de 16CA